createdAt,value
2023-02-11T00:02:34.517Z,79056.56
2023-02-11T00:09:37.987Z,79036.13
2023-02-11T00:16:40.000Z,79023.84
2023-02-11T00:23:42.841Z,79011.56
2023-02-11T00:30:44.952Z,78993.16
2023-02-11T00:37:47.068Z,78978.84
2023-02-11T00:44:49.154Z,78968.63
2023-02-11T00:51:51.207Z,78935.91
2023-02-11T00:58:54.238Z,78917.50
2023-02-11T01:05:56.513Z,78921.59
2023-02-11T01:12:58.579Z,78895.00
2023-02-11T01:20:04.039Z,78864.34
2023-02-11T01:27:09.136Z,78845.94
2023-02-11T01:34:11.231Z,78827.53
2023-02-11T01:41:15.226Z,78815.25
2023-02-11T01:48:30.069Z,78811.16
2023-02-11T01:55:50.489Z,78803.00
2023-02-11T02:02:58.389Z,78790.72
2023-02-11T02:10:05.961Z,78784.59
2023-02-11T02:17:22.537Z,78774.38
2023-02-11T02:24:47.414Z,78774.38
2023-02-11T02:32:15.496Z,78762.09
2023-02-11T02:39:27.262Z,78751.88
2023-02-11T02:46:33.136Z,78741.66
2023-02-11T02:54:11.680Z,78739.59
2023-02-11T03:01:16.525Z,78731.41
2023-02-11T03:08:37.041Z,78710.97
2023-02-11T03:15:44.468Z,78710.97
2023-02-11T03:22:59.266Z,78702.78
2023-02-11T03:30:19.652Z,78696.66
2023-02-11T03:37:35.948Z,78696.66
2023-02-11T03:44:44.484Z,78684.38
2023-02-11T03:51:47.538Z,78655.75
2023-02-11T03:58:50.912Z,78633.28
2023-02-11T04:05:52.950Z,78629.19
2023-02-11T04:12:55.142Z,78610.78
2023-02-11T04:19:57.073Z,78592.38
2023-02-11T04:26:59.101Z,78578.06
2023-02-11T04:34:01.249Z,78553.53
2023-02-11T04:41:06.331Z,78543.28
2023-02-11T04:48:08.757Z,78537.16
2023-02-11T04:55:10.762Z,78524.91
2023-02-11T05:02:12.732Z,78520.81
2023-02-11T05:09:14.964Z,78524.91
2023-02-11T05:16:18.185Z,78502.41
2023-02-11T05:23:20.152Z,78504.44
2023-02-11T05:30:22.254Z,78504.44
2023-02-11T05:37:24.360Z,78492.19
2023-02-11T05:44:26.625Z,78481.94
2023-02-11T05:51:28.625Z,78473.78
2023-02-11T05:58:30.720Z,78457.41
2023-02-11T06:05:33.869Z,78479.91
2023-02-11T06:12:37.220Z,78481.94
2023-02-11T06:19:39.435Z,78488.09
2023-02-11T06:26:41.469Z,78492.19
2023-02-11T06:33:43.954Z,78475.81
2023-02-11T06:40:49.785Z,78469.69
2023-02-11T06:47:51.992Z,78463.56
2023-02-11T06:54:54.000Z,78453.31
2023-02-11T07:01:56.185Z,78436.97
2023-02-11T07:08:58.317Z,78436.97
2023-02-11T07:16:00.249Z,78439.00
2023-02-11T07:23:02.327Z,78434.94
2023-02-11T07:30:10.952Z,78420.63
2023-02-11T07:37:15.848Z,78404.25
2023-02-11T07:44:22.726Z,78416.53
2023-02-11T07:51:31.208Z,78408.34
2023-02-11T07:58:37.938Z,78398.13
2023-02-11T08:05:46.403Z,78402.22
2023-02-11T08:12:51.539Z,78406.31
2023-02-11T08:19:57.300Z,78418.56
2023-02-11T08:27:05.362Z,78414.47
2023-02-11T08:34:13.650Z,78418.56
2023-02-11T08:41:20.519Z,78379.72
2023-02-11T08:48:26.633Z,78371.53
2023-02-11T08:55:33.445Z,78365.41
2023-02-11T09:02:40.327Z,78361.31
2023-02-11T09:09:47.059Z,78369.50
2023-02-11T09:16:52.175Z,78353.13
2023-02-11T09:23:58.776Z,78347.00
2023-02-11T09:31:14.094Z,78332.69
2023-02-11T09:38:23.758Z,78316.34
2023-02-11T09:45:37.592Z,78308.16
2023-02-11T09:52:58.346Z,78304.06
2023-02-11T10:00:07.872Z,78312.25
2023-02-11T10:07:33.219Z,78304.06
2023-02-11T10:15:03.748Z,78277.47
2023-02-11T10:22:16.444Z,78259.09
2023-02-11T10:29:34.631Z,78259.09
2023-02-11T10:36:47.806Z,78273.41
2023-02-11T10:43:55.395Z,78277.47
2023-02-11T10:51:29.714Z,78263.16
2023-02-11T10:58:47.719Z,78259.09
2023-02-11T11:06:02.356Z,78238.63
2023-02-11T11:13:18.271Z,78228.41
2023-02-11T11:20:31.236Z,78214.09
2023-02-11T11:27:39.900Z,78195.69
2023-02-11T11:34:48.835Z,78187.53
2023-02-11T11:42:06.344Z,78177.31
2023-02-11T11:49:27.817Z,78173.22
2023-02-11T11:56:40.722Z,78156.84
2023-02-11T12:03:47.526Z,78142.53
2023-02-11T12:11:14.006Z,78132.31
2023-02-11T12:19:00.652Z,78120.06
2023-02-11T12:26:53.998Z,78107.78
2023-02-11T12:34:10.709Z,78095.50
2023-02-11T12:41:49.538Z,78091.44
2023-02-11T12:49:00.577Z,78077.13
2023-02-11T12:56:17.436Z,78064.84
2023-02-11T13:03:34.866Z,78052.59
2023-02-11T13:10:49.271Z,78034.19
2023-02-11T13:18:34.077Z,78013.72
2023-02-11T13:25:51.491Z,78001.47
2023-02-11T13:33:00.163Z,77989.19
2023-02-11T13:40:25.017Z,77978.97
2023-02-11T13:47:43.818Z,77964.66
2023-02-11T13:54:55.556Z,77968.75
2023-02-11T14:02:26.480Z,77978.97
2023-02-11T14:09:47.824Z,77958.53
2023-02-11T14:17:12.145Z,77952.41
2023-02-11T14:24:24.786Z,77972.84
2023-02-11T14:31:38.001Z,77972.84
2023-02-11T14:39:03.828Z,77978.97
2023-02-11T14:46:08.329Z,77974.88
2023-02-11T14:53:16.999Z,77978.97
2023-02-11T15:00:24.341Z,77968.75
2023-02-11T15:07:27.746Z,77952.41
2023-02-11T15:14:38.368Z,77964.66
2023-02-11T15:21:40.984Z,77968.75
2023-02-11T15:28:52.521Z,77970.81
2023-02-11T15:35:55.577Z,77964.66
2023-02-11T15:43:00.656Z,77972.84
2023-02-11T15:50:04.718Z,77960.56
2023-02-11T15:57:12.454Z,77981.03
2023-02-11T16:04:20.876Z,77987.16
2023-02-11T16:11:32.744Z,77989.19
2023-02-11T16:18:40.448Z,77997.38
2023-02-11T16:25:43.686Z,78009.66
2023-02-11T16:32:49.934Z,78011.69
2023-02-11T16:40:01.316Z,78026.00
2023-02-11T16:47:09.841Z,78023.97
2023-02-11T16:54:17.291Z,78026.00
2023-02-11T17:01:24.413Z,78040.31
2023-02-11T17:08:27.598Z,78042.34
2023-02-11T17:15:30.001Z,78054.63
2023-02-11T17:22:32.366Z,78062.81
2023-02-11T17:29:35.108Z,78073.03
2023-02-11T17:36:45.029Z,78075.06
2023-02-11T17:43:48.177Z,78087.34
2023-02-11T17:50:50.840Z,78091.44
2023-02-11T17:57:56.041Z,78103.69
2023-02-11T18:04:59.669Z,78130.28
2023-02-11T18:12:02.864Z,78130.28
2023-02-11T18:19:08.200Z,78132.31
2023-02-11T18:26:13.537Z,78140.50
2023-02-11T18:33:18.159Z,78148.69
2023-02-11T18:40:23.501Z,78156.84
2023-02-11T18:47:29.216Z,78175.25
2023-02-11T18:54:47.291Z,78205.91
2023-02-11T19:01:54.042Z,78252.94
2023-02-11T19:09:03.536Z,78332.69
2023-02-11T19:16:11.164Z,78394.03
2023-02-11T19:23:14.624Z,78443.09
2023-02-11T19:30:20.061Z,78488.09
2023-02-11T19:37:27.831Z,78549.44
2023-02-11T19:44:34.299Z,78621.00
2023-02-11T19:51:39.895Z,78657.81
2023-02-11T19:58:43.749Z,78706.88
2023-02-11T20:05:48.666Z,78710.97
2023-02-11T20:12:53.610Z,78739.59
2023-02-11T20:20:15.880Z,78772.31
2023-02-11T20:27:20.115Z,78796.84
2023-02-11T20:34:22.993Z,78794.81
2023-02-11T20:41:30.942Z,78823.44
2023-02-11T20:48:34.852Z,78827.53
2023-02-11T20:55:39.528Z,78839.81
2023-02-11T21:02:42.499Z,78843.88
2023-02-11T21:09:45.548Z,78876.59
2023-02-11T21:16:48.761Z,78899.09
2023-02-11T21:23:52.336Z,78921.59
2023-02-11T21:30:57.067Z,78937.97
2023-02-11T21:38:00.041Z,78946.13
2023-02-11T21:45:06.666Z,78950.22
2023-02-11T21:52:09.389Z,78952.28
2023-02-11T21:59:14.353Z,78960.44
2023-02-11T22:06:21.721Z,78962.50
2023-02-11T22:13:24.509Z,78993.16
2023-02-11T22:20:27.251Z,79001.34
2023-02-11T22:27:29.378Z,79029.97
2023-02-11T22:34:31.354Z,79036.13
2023-02-11T22:41:33.423Z,79062.69
2023-02-11T22:48:36.097Z,79072.94
2023-02-11T22:55:39.209Z,79089.28
2023-02-11T23:02:41.219Z,79095.44
2023-02-11T23:09:43.305Z,79099.50
2023-02-11T23:16:45.432Z,79130.19
2023-02-11T23:23:48.600Z,79150.63
2023-02-11T23:30:50.571Z,79164.97
2023-02-11T23:37:53.228Z,79181.31
2023-02-11T23:44:55.305Z,79212.00
2023-02-11T23:51:57.324Z,79207.91
2023-02-11T23:58:59.714Z,79209.94
